sensor_id;sensor_type;location;lat;lon;timestamp;P1;durP1;ratioP1;P2;durP2;ratioP2
16579;SDS011;8402;51.466;6.806;2022-12-16T00:02:01;31.17;;;11.80;;
16579;SDS011;8402;51.466;6.806;2022-12-16T00:04:30;35.20;;;11.07;;
16579;SDS011;8402;51.466;6.806;2022-12-16T00:06:58;32.37;;;12.67;;
16579;SDS011;8402;51.466;6.806;2022-12-16T00:09:27;31.17;;;11.73;;
16579;SDS011;8402;51.466;6.806;2022-12-16T00:11:54;26.83;;;10.47;;
16579;SDS011;8402;51.466;6.806;2022-12-16T00:14:22;30.73;;;11.70;;
16579;SDS011;8402;51.466;6.806;2022-12-16T00:16:52;38.07;;;13.23;;
16579;SDS011;8402;51.466;6.806;2022-12-16T00:19:20;37.57;;;14.13;;
16579;SDS011;8402;51.466;6.806;2022-12-16T00:21:48;29.80;;;12.03;;
16579;SDS011;8402;51.466;6.806;2022-12-16T00:24:17;34.67;;;13.70;;
16579;SDS011;8402;51.466;6.806;2022-12-16T00:26:46;37.50;;;13.13;;
16579;SDS011;8402;51.466;6.806;2022-12-16T00:29:14;32.10;;;12.73;;
16579;SDS011;8402;51.466;6.806;2022-12-16T00:31:42;35.73;;;13.70;;
16579;SDS011;8402;51.466;6.806;2022-12-16T00:34:13;30.97;;;12.57;;
16579;SDS011;8402;51.466;6.806;2022-12-16T00:36:41;35.00;;;11.50;;
16579;SDS011;8402;51.466;6.806;2022-12-16T00:39:10;31.30;;;12.20;;
16579;SDS011;8402;51.466;6.806;2022-12-16T00:41:38;31.93;;;14.53;;
16579;SDS011;8402;51.466;6.806;2022-12-16T00:44:07;43.20;;;14.47;;
16579;SDS011;8402;51.466;6.806;2022-12-16T00:46:35;36.07;;;12.63;;
16579;SDS011;8402;51.466;6.806;2022-12-16T00:49:03;46.87;;;15.47;;
16579;SDS011;8402;51.466;6.806;2022-12-16T00:51:31;42.40;;;16.40;;
16579;SDS011;8402;51.466;6.806;2022-12-16T00:53:59;42.33;;;13.40;;
16579;SDS011;8402;51.466;6.806;2022-12-16T00:56:27;42.37;;;15.70;;
16579;SDS011;8402;51.466;6.806;2022-12-16T00:58:55;34.47;;;14.10;;
16579;SDS011;8402;51.466;6.806;2022-12-16T01:01:24;36.43;;;14.23;;
16579;SDS011;8402;51.466;6.806;2022-12-16T01:03:54;37.93;;;16.17;;
16579;SDS011;8402;51.466;6.806;2022-12-16T01:06:22;41.70;;;15.60;;
16579;SDS011;8402;51.466;6.806;2022-12-16T01:08:50;53.83;;;20.07;;
16579;SDS011;8402;51.466;6.806;2022-12-16T01:11:20;43.17;;;17.80;;
16579;SDS011;8402;51.466;6.806;2022-12-16T01:13:48;44.87;;;15.87;;
16579;SDS011;8402;51.466;6.806;2022-12-16T01:16:20;42.47;;;16.03;;
16579;SDS011;8402;51.466;6.806;2022-12-16T01:18:49;35.87;;;14.27;;
16579;SDS011;8402;51.466;6.806;2022-12-16T01:21:20;39.10;;;14.50;;
16579;SDS011;8402;51.466;6.806;2022-12-16T01:23:48;33.40;;;14.40;;
16579;SDS011;8402;51.466;6.806;2022-12-16T01:26:20;33.47;;;13.97;;
16579;SDS011;8402;51.466;6.806;2022-12-16T01:28:48;38.93;;;14.83;;
16579;SDS011;8402;51.466;6.806;2022-12-16T01:31:16;44.73;;;15.53;;
16579;SDS011;8402;51.466;6.806;2022-12-16T01:33:45;44.70;;;13.60;;
16579;SDS011;8402;51.466;6.806;2022-12-16T01:36:15;31.93;;;13.23;;
16579;SDS011;8402;51.466;6.806;2022-12-16T01:38:43;41.70;;;15.20;;
16579;SDS011;8402;51.466;6.806;2022-12-16T01:41:11;43.87;;;13.20;;
16579;SDS011;8402;51.466;6.806;2022-12-16T01:43:41;45.93;;;16.40;;
16579;SDS011;8402;51.466;6.806;2022-12-16T01:46:12;41.13;;;14.37;;
16579;SDS011;8402;51.466;6.806;2022-12-16T01:48:46;39.67;;;15.27;;
16579;SDS011;8402;51.466;6.806;2022-12-16T01:51:21;32.47;;;13.00;;
16579;SDS011;8402;51.466;6.806;2022-12-16T01:53:54;43.90;;;14.23;;
16579;SDS011;8402;51.466;6.806;2022-12-16T01:56:24;45.10;;;16.50;;
16579;SDS011;8402;51.466;6.806;2022-12-16T01:58:54;46.97;;;13.43;;
16579;SDS011;8402;51.466;6.806;2022-12-16T02:01:23;35.73;;;13.07;;
16579;SDS011;8402;51.466;6.806;2022-12-16T02:03:51;43.27;;;14.30;;
16579;SDS011;8402;51.466;6.806;2022-12-16T02:06:23;41.10;;;14.67;;
16579;SDS011;8402;51.466;6.806;2022-12-16T02:08:53;36.47;;;13.57;;
16579;SDS011;8402;51.466;6.806;2022-12-16T02:14:27;34.47;;;14.13;;
16579;SDS011;8402;51.466;6.806;2022-12-16T02:17:06;36.13;;;12.47;;
16579;SDS011;8402;51.466;6.806;2022-12-16T02:19:55;32.53;;;11.83;;
16579;SDS011;8402;51.466;6.806;2022-12-16T02:22:44;33.27;;;12.30;;
16579;SDS011;8402;51.466;6.806;2022-12-16T02:25:31;33.37;;;12.00;;
16579;SDS011;8402;51.466;6.806;2022-12-16T02:28:22;31.50;;;13.00;;
16579;SDS011;8402;51.466;6.806;2022-12-16T02:31:14;31.13;;;11.17;;
16579;SDS011;8402;51.466;6.806;2022-12-16T02:33:51;36.50;;;13.33;;
16579;SDS011;8402;51.466;6.806;2022-12-16T02:36:33;31.93;;;12.30;;
16579;SDS011;8402;51.466;6.806;2022-12-16T02:39:11;34.83;;;11.73;;
16579;SDS011;8402;51.466;6.806;2022-12-16T02:41:42;28.17;;;10.30;;
16579;SDS011;8402;51.466;6.806;2022-12-16T02:44:17;36.80;;;13.27;;
16579;SDS011;8402;51.466;6.806;2022-12-16T02:46:52;34.37;;;11.47;;
16579;SDS011;8402;51.466;6.806;2022-12-16T02:52:11;33.00;;;12.07;;
16579;SDS011;8402;51.466;6.806;2022-12-16T02:54:40;30.13;;;12.17;;
16579;SDS011;8402;51.466;6.806;2022-12-16T02:57:13;31.80;;;12.67;;
16579;SDS011;8402;51.466;6.806;2022-12-16T02:59:51;34.93;;;12.37;;
16579;SDS011;8402;51.466;6.806;2022-12-16T03:02:30;36.30;;;13.20;;
16579;SDS011;8402;51.466;6.806;2022-12-16T03:05:08;35.10;;;13.27;;
16579;SDS011;8402;51.466;6.806;2022-12-16T03:07:41;44.43;;;15.73;;
16579;SDS011;8402;51.466;6.806;2022-12-16T03:10:13;34.97;;;12.40;;
16579;SDS011;8402;51.466;6.806;2022-12-16T03:12:44;30.97;;;10.67;;
16579;SDS011;8402;51.466;6.806;2022-12-16T03:15:14;39.37;;;14.73;;
16579;SDS011;8402;51.466;6.806;2022-12-16T03:17:49;35.87;;;14.27;;
16579;SDS011;8402;51.466;6.806;2022-12-16T03:20:21;30.27;;;11.67;;
16579;SDS011;8402;51.466;6.806;2022-12-16T03:22:54;36.20;;;12.80;;
16579;SDS011;8402;51.466;6.806;2022-12-16T03:25:28;33.07;;;13.70;;
16579;SDS011;8402;51.466;6.806;2022-12-16T03:28:02;33.10;;;13.07;;
16579;SDS011;8402;51.466;6.806;2022-12-16T03:30:37;33.30;;;12.23;;
16579;SDS011;8402;51.466;6.806;2022-12-16T03:33:11;31.17;;;11.40;;
16579;SDS011;8402;51.466;6.806;2022-12-16T03:35:46;31.33;;;12.47;;
16579;SDS011;8402;51.466;6.806;2022-12-16T03:38:18;39.93;;;12.80;;
16579;SDS011;8402;51.466;6.806;2022-12-16T03:40:47;33.30;;;13.47;;
16579;SDS011;8402;51.466;6.806;2022-12-16T03:43:20;37.87;;;14.33;;
16579;SDS011;8402;51.466;6.806;2022-12-16T03:45:49;36.43;;;14.00;;
16579;SDS011;8402;51.466;6.806;2022-12-16T03:48:24;29.03;;;11.53;;
16579;SDS011;8402;51.466;6.806;2022-12-16T03:50:52;30.80;;;12.57;;
16579;SDS011;8402;51.466;6.806;2022-12-16T03:53:20;35.33;;;12.17;;
16579;SDS011;8402;51.466;6.806;2022-12-16T03:55:51;36.83;;;11.57;;
16579;SDS011;8402;51.466;6.806;2022-12-16T03:58:19;33.90;;;13.07;;
16579;SDS011;8402;51.466;6.806;2022-12-16T04:00:47;41.10;;;14.10;;
16579;SDS011;8402;51.466;6.806;2022-12-16T04:03:15;40.93;;;13.03;;
16579;SDS011;8402;51.466;6.806;2022-12-16T04:05:45;40.67;;;13.43;;
16579;SDS011;8402;51.466;6.806;2022-12-16T04:08:13;37.07;;;13.07;;
16579;SDS011;8402;51.466;6.806;2022-12-16T04:10:41;38.67;;;12.93;;
16579;SDS011;8402;51.466;6.806;2022-12-16T04:13:26;26.13;;;10.77;;
16579;SDS011;8402;51.466;6.806;2022-12-16T04:16:12;30.60;;;13.07;;
16579;SDS011;8402;51.466;6.806;2022-12-16T04:18:59;36.07;;;12.10;;
16579;SDS011;8402;51.466;6.806;2022-12-16T04:21:47;30.77;;;11.73;;
16579;SDS011;8402;51.466;6.806;2022-12-16T04:24:33;38.87;;;11.67;;
16579;SDS011;8402;51.466;6.806;2022-12-16T04:27:02;28.70;;;10.93;;
16579;SDS011;8402;51.466;6.806;2022-12-16T04:29:47;30.83;;;11.63;;
16579;SDS011;8402;51.466;6.806;2022-12-16T04:32:33;35.17;;;11.47;;
16579;SDS011;8402;51.466;6.806;2022-12-16T04:35:15;20.13;;;9.27;;
16579;SDS011;8402;51.466;6.806;2022-12-16T04:38:01;31.53;;;10.13;;
16579;SDS011;8402;51.466;6.806;2022-12-16T04:40:46;24.53;;;10.43;;
16579;SDS011;8402;51.466;6.806;2022-12-16T04:43:32;34.30;;;11.03;;
16579;SDS011;8402;51.466;6.806;2022-12-16T04:46:17;30.40;;;11.93;;
16579;SDS011;8402;51.466;6.806;2022-12-16T04:49:03;40.63;;;12.50;;
16579;SDS011;8402;51.466;6.806;2022-12-16T04:51:48;27.03;;;9.97;;
16579;SDS011;8402;51.466;6.806;2022-12-16T04:54:35;31.57;;;12.30;;
16579;SDS011;8402;51.466;6.806;2022-12-16T04:57:20;31.87;;;11.27;;
16579;SDS011;8402;51.466;6.806;2022-12-16T05:00:06;22.77;;;8.13;;
16579;SDS011;8402;51.466;6.806;2022-12-16T05:02:52;39.90;;;11.90;;
16579;SDS011;8402;51.466;6.806;2022-12-16T05:05:36;38.70;;;13.10;;
16579;SDS011;8402;51.466;6.806;2022-12-16T05:08:22;26.77;;;9.67;;
16579;SDS011;8402;51.466;6.806;2022-12-16T05:11:08;46.10;;;14.97;;
16579;SDS011;8402;51.466;6.806;2022-12-16T05:13:50;34.00;;;12.73;;
16579;SDS011;8402;51.466;6.806;2022-12-16T05:16:35;26.20;;;12.23;;
16579;SDS011;8402;51.466;6.806;2022-12-16T05:19:20;35.57;;;12.83;;
16579;SDS011;8402;51.466;6.806;2022-12-16T05:22:05;36.47;;;12.87;;
16579;SDS011;8402;51.466;6.806;2022-12-16T05:24:51;25.93;;;10.73;;
16579;SDS011;8402;51.466;6.806;2022-12-16T05:27:37;40.43;;;13.93;;
16579;SDS011;8402;51.466;6.806;2022-12-16T05:30:23;33.20;;;13.33;;
16579;SDS011;8402;51.466;6.806;2022-12-16T05:33:09;29.33;;;12.00;;
16579;SDS011;8402;51.466;6.806;2022-12-16T05:35:55;38.20;;;12.47;;
16579;SDS011;8402;51.466;6.806;2022-12-16T05:38:40;33.63;;;12.47;;
16579;SDS011;8402;51.466;6.806;2022-12-16T05:41:25;32.73;;;11.67;;
16579;SDS011;8402;51.466;6.806;2022-12-16T05:44:12;34.57;;;10.63;;
16579;SDS011;8402;51.466;6.806;2022-12-16T05:46:57;31.80;;;12.23;;
16579;SDS011;8402;51.466;6.806;2022-12-16T05:49:42;32.43;;;12.37;;
16579;SDS011;8402;51.466;6.806;2022-12-16T05:52:27;37.57;;;11.93;;
16579;SDS011;8402;51.466;6.806;2022-12-16T05:55:13;29.73;;;11.77;;
16579;SDS011;8402;51.466;6.806;2022-12-16T05:57:59;34.33;;;11.60;;
16579;SDS011;8402;51.466;6.806;2022-12-16T06:00:46;34.37;;;11.43;;
16579;SDS011;8402;51.466;6.806;2022-12-16T06:03:31;32.63;;;10.90;;
16579;SDS011;8402;51.466;6.806;2022-12-16T06:06:17;32.67;;;10.83;;
16579;SDS011;8402;51.466;6.806;2022-12-16T06:09:02;28.40;;;11.20;;
16579;SDS011;8402;51.466;6.806;2022-12-16T06:11:48;34.10;;;13.47;;
16579;SDS011;8402;51.466;6.806;2022-12-16T06:14:42;27.70;;;11.57;;
16579;SDS011;8402;51.466;6.806;2022-12-16T06:17:28;29.57;;;11.60;;
16579;SDS011;8402;51.466;6.806;2022-12-16T06:20:13;29.83;;;11.60;;
16579;SDS011;8402;51.466;6.806;2022-12-16T06:22:59;32.60;;;11.80;;
16579;SDS011;8402;51.466;6.806;2022-12-16T06:25:50;31.13;;;11.97;;
16579;SDS011;8402;51.466;6.806;2022-12-16T06:28:35;29.23;;;12.33;;
16579;SDS011;8402;51.466;6.806;2022-12-16T06:31:21;38.07;;;14.00;;
16579;SDS011;8402;51.466;6.806;2022-12-16T06:34:08;40.60;;;14.43;;
16579;SDS011;8402;51.466;6.806;2022-12-16T06:36:49;33.97;;;11.73;;
16579;SDS011;8402;51.466;6.806;2022-12-16T06:39:35;33.47;;;11.23;;
16579;SDS011;8402;51.466;6.806;2022-12-16T06:42:20;30.00;;;11.73;;
16579;SDS011;8402;51.466;6.806;2022-12-16T06:45:05;26.47;;;10.03;;
16579;SDS011;8402;51.466;6.806;2022-12-16T06:47:59;30.90;;;11.47;;
16579;SDS011;8402;51.466;6.806;2022-12-16T06:50:46;29.60;;;10.87;;
16579;SDS011;8402;51.466;6.806;2022-12-16T06:53:31;28.20;;;11.57;;
16579;SDS011;8402;51.466;6.806;2022-12-16T06:56:17;31.87;;;12.00;;
16579;SDS011;8402;51.466;6.806;2022-12-16T06:59:02;32.43;;;10.70;;
16579;SDS011;8402;51.466;6.806;2022-12-16T07:01:48;28.73;;;10.77;;
16579;SDS011;8402;51.466;6.806;2022-12-16T07:04:34;29.77;;;10.20;;
16579;SDS011;8402;51.466;6.806;2022-12-16T07:07:21;32.53;;;12.27;;
16579;SDS011;8402;51.466;6.806;2022-12-16T07:10:06;28.03;;;10.23;;
16579;SDS011;8402;51.466;6.806;2022-12-16T07:12:55;30.50;;;11.90;;
16579;SDS011;8402;51.466;6.806;2022-12-16T07:15:41;35.03;;;11.60;;
16579;SDS011;8402;51.466;6.806;2022-12-16T07:18:26;23.37;;;10.00;;
16579;SDS011;8402;51.466;6.806;2022-12-16T07:21:11;34.73;;;11.13;;
16579;SDS011;8402;51.466;6.806;2022-12-16T07:23:58;33.43;;;12.03;;
16579;SDS011;8402;51.466;6.806;2022-12-16T07:26:43;25.53;;;9.83;;
16579;SDS011;8402;51.466;6.806;2022-12-16T07:29:29;24.67;;;9.40;;
16579;SDS011;8402;51.466;6.806;2022-12-16T07:32:16;26.30;;;9.07;;
16579;SDS011;8402;51.466;6.806;2022-12-16T07:35:13;31.70;;;10.60;;
16579;SDS011;8402;51.466;6.806;2022-12-16T07:37:58;29.23;;;10.20;;
16579;SDS011;8402;51.466;6.806;2022-12-16T07:40:46;29.50;;;11.37;;
16579;SDS011;8402;51.466;6.806;2022-12-16T07:43:31;31.73;;;11.87;;
16579;SDS011;8402;51.466;6.806;2022-12-16T07:46:17;29.67;;;11.57;;
16579;SDS011;8402;51.466;6.806;2022-12-16T07:49:02;34.00;;;12.23;;
16579;SDS011;8402;51.466;6.806;2022-12-16T07:51:47;22.37;;;9.87;;
16579;SDS011;8402;51.466;6.806;2022-12-16T07:54:37;30.97;;;10.03;;
16579;SDS011;8402;51.466;6.806;2022-12-16T07:57:25;27.90;;;10.80;;
16579;SDS011;8402;51.466;6.806;2022-12-16T08:00:11;32.70;;;12.03;;
16579;SDS011;8402;51.466;6.806;2022-12-16T08:02:56;31.97;;;12.60;;
16579;SDS011;8402;51.466;6.806;2022-12-16T08:05:42;26.93;;;11.60;;
16579;SDS011;8402;51.466;6.806;2022-12-16T08:08:27;36.93;;;12.33;;
16579;SDS011;8402;51.466;6.806;2022-12-16T08:11:12;38.33;;;12.67;;
16579;SDS011;8402;51.466;6.806;2022-12-16T08:13:59;32.83;;;11.33;;
16579;SDS011;8402;51.466;6.806;2022-12-16T08:16:41;32.80;;;11.13;;
16579;SDS011;8402;51.466;6.806;2022-12-16T08:19:26;33.97;;;12.37;;
16579;SDS011;8402;51.466;6.806;2022-12-16T08:22:11;38.37;;;14.33;;
16579;SDS011;8402;51.466;6.806;2022-12-16T08:25:11;53.07;;;14.77;;
16579;SDS011;8402;51.466;6.806;2022-12-16T08:27:57;31.87;;;11.27;;
16579;SDS011;8402;51.466;6.806;2022-12-16T08:30:49;36.33;;;12.97;;
16579;SDS011;8402;51.466;6.806;2022-12-16T08:33:35;28.33;;;12.13;;
16579;SDS011;8402;51.466;6.806;2022-12-16T08:36:21;38.40;;;12.03;;
16579;SDS011;8402;51.466;6.806;2022-12-16T08:39:06;29.63;;;11.57;;
16579;SDS011;8402;51.466;6.806;2022-12-16T08:42:06;44.83;;;15.67;;
16579;SDS011;8402;51.466;6.806;2022-12-16T08:44:51;44.97;;;15.93;;
16579;SDS011;8402;51.466;6.806;2022-12-16T08:47:37;49.73;;;15.17;;
16579;SDS011;8402;51.466;6.806;2022-12-16T08:50:23;52.57;;;14.93;;
16579;SDS011;8402;51.466;6.806;2022-12-16T08:53:09;66.50;;;15.93;;
16579;SDS011;8402;51.466;6.806;2022-12-16T08:55:54;56.37;;;15.27;;
16579;SDS011;8402;51.466;6.806;2022-12-16T08:58:39;60.00;;;17.33;;
16579;SDS011;8402;51.466;6.806;2022-12-16T09:01:26;52.57;;;14.73;;
16579;SDS011;8402;51.466;6.806;2022-12-16T09:04:15;71.07;;;17.43;;
16579;SDS011;8402;51.466;6.806;2022-12-16T09:07:01;42.73;;;14.30;;
16579;SDS011;8402;51.466;6.806;2022-12-16T09:09:46;52.67;;;15.73;;
16579;SDS011;8402;51.466;6.806;2022-12-16T09:12:31;57.30;;;15.97;;
16579;SDS011;8402;51.466;6.806;2022-12-16T09:15:16;44.10;;;16.77;;
16579;SDS011;8402;51.466;6.806;2022-12-16T09:18:02;47.63;;;16.47;;
16579;SDS011;8402;51.466;6.806;2022-12-16T09:20:49;53.00;;;16.77;;
16579;SDS011;8402;51.466;6.806;2022-12-16T09:23:35;52.60;;;15.63;;
16579;SDS011;8402;51.466;6.806;2022-12-16T09:26:21;45.20;;;15.50;;
16579;SDS011;8402;51.466;6.806;2022-12-16T09:29:06;59.00;;;18.13;;
16579;SDS011;8402;51.466;6.806;2022-12-16T09:31:51;55.30;;;16.20;;
16579;SDS011;8402;51.466;6.806;2022-12-16T09:34:36;54.13;;;17.07;;
16579;SDS011;8402;51.466;6.806;2022-12-16T09:37:23;58.40;;;16.07;;
16579;SDS011;8402;51.466;6.806;2022-12-16T09:40:08;58.53;;;17.80;;
16579;SDS011;8402;51.466;6.806;2022-12-16T09:42:59;56.27;;;16.63;;
16579;SDS011;8402;51.466;6.806;2022-12-16T09:45:51;69.70;;;19.90;;
16579;SDS011;8402;51.466;6.806;2022-12-16T09:48:45;78.60;;;20.47;;
16579;SDS011;8402;51.466;6.806;2022-12-16T09:51:35;67.70;;;19.43;;
16579;SDS011;8402;51.466;6.806;2022-12-16T09:54:25;72.57;;;19.73;;
16579;SDS011;8402;51.466;6.806;2022-12-16T09:57:13;68.17;;;21.17;;
16579;SDS011;8402;51.466;6.806;2022-12-16T10:00:04;80.13;;;24.43;;
16579;SDS011;8402;51.466;6.806;2022-12-16T10:02:51;84.07;;;21.70;;
16579;SDS011;8402;51.466;6.806;2022-12-16T10:05:42;57.60;;;20.37;;
16579;SDS011;8402;51.466;6.806;2022-12-16T10:08:36;58.13;;;20.13;;
16579;SDS011;8402;51.466;6.806;2022-12-16T10:11:36;68.80;;;18.87;;
16579;SDS011;8402;51.466;6.806;2022-12-16T10:14:46;78.60;;;21.03;;
16579;SDS011;8402;51.466;6.806;2022-12-16T10:17:35;68.00;;;20.23;;
16579;SDS011;8402;51.466;6.806;2022-12-16T10:20:29;60.13;;;19.47;;
16579;SDS011;8402;51.466;6.806;2022-12-16T10:23:21;71.23;;;20.80;;
16579;SDS011;8402;51.466;6.806;2022-12-16T10:26:12;70.60;;;20.33;;
16579;SDS011;8402;51.466;6.806;2022-12-16T10:29:06;60.63;;;19.87;;
16579;SDS011;8402;51.466;6.806;2022-12-16T10:32:01;75.87;;;20.27;;
16579;SDS011;8402;51.466;6.806;2022-12-16T10:34:54;77.70;;;23.57;;
16579;SDS011;8402;51.466;6.806;2022-12-16T10:37:40;75.77;;;22.77;;
16579;SDS011;8402;51.466;6.806;2022-12-16T10:40:30;79.07;;;22.23;;
16579;SDS011;8402;51.466;6.806;2022-12-16T10:43:20;65.63;;;21.97;;
16579;SDS011;8402;51.466;6.806;2022-12-16T10:46:17;67.37;;;20.20;;
16579;SDS011;8402;51.466;6.806;2022-12-16T10:49:08;76.70;;;21.80;;
16579;SDS011;8402;51.466;6.806;2022-12-16T10:52:03;59.53;;;19.80;;
16579;SDS011;8402;51.466;6.806;2022-12-16T10:54:50;80.50;;;22.20;;
16579;SDS011;8402;51.466;6.806;2022-12-16T10:57:50;75.10;;;21.73;;
16579;SDS011;8402;51.466;6.806;2022-12-16T11:00:43;62.57;;;20.23;;
16579;SDS011;8402;51.466;6.806;2022-12-16T11:03:38;83.10;;;23.43;;
16579;SDS011;8402;51.466;6.806;2022-12-16T11:06:25;75.67;;;23.20;;
16579;SDS011;8402;51.466;6.806;2022-12-16T11:09:19;72.70;;;22.27;;
16579;SDS011;8402;51.466;6.806;2022-12-16T11:12:13;72.30;;;21.83;;
16579;SDS011;8402;51.466;6.806;2022-12-16T11:15:17;132.63;;;43.83;;
16579;SDS011;8402;51.466;6.806;2022-12-16T11:18:11;86.20;;;25.10;;
16579;SDS011;8402;51.466;6.806;2022-12-16T11:21:11;73.13;;;24.57;;
16579;SDS011;8402;51.466;6.806;2022-12-16T11:24:04;99.87;;;22.77;;
16579;SDS011;8402;51.466;6.806;2022-12-16T11:27:02;72.27;;;20.80;;
16579;SDS011;8402;51.466;6.806;2022-12-16T11:29:50;77.87;;;24.07;;
16579;SDS011;8402;51.466;6.806;2022-12-16T11:32:37;79.63;;;24.93;;
16579;SDS011;8402;51.466;6.806;2022-12-16T11:35:27;125.90;;;31.67;;
16579;SDS011;8402;51.466;6.806;2022-12-16T11:38:17;90.43;;;25.53;;
16579;SDS011;8402;51.466;6.806;2022-12-16T11:41:07;115.50;;;28.13;;
16579;SDS011;8402;51.466;6.806;2022-12-16T11:43:58;171.90;;;46.37;;
16579;SDS011;8402;51.466;6.806;2022-12-16T11:46:45;87.70;;;26.30;;
16579;SDS011;8402;51.466;6.806;2022-12-16T11:49:31;121.07;;;34.47;;
16579;SDS011;8402;51.466;6.806;2022-12-16T11:52:17;100.80;;;29.90;;
16579;SDS011;8402;51.466;6.806;2022-12-16T11:55:10;93.20;;;29.37;;
16579;SDS011;8402;51.466;6.806;2022-12-16T11:58:24;85.07;;;26.23;;
16579;SDS011;8402;51.466;6.806;2022-12-16T12:01:17;95.93;;;27.73;;
16579;SDS011;8402;51.466;6.806;2022-12-16T12:04:21;91.93;;;24.77;;
16579;SDS011;8402;51.466;6.806;2022-12-16T12:07:16;75.23;;;24.03;;
16579;SDS011;8402;51.466;6.806;2022-12-16T12:10:27;68.40;;;24.03;;
16579;SDS011;8402;51.466;6.806;2022-12-16T12:13:33;81.87;;;24.37;;
16579;SDS011;8402;51.466;6.806;2022-12-16T12:16:37;79.80;;;25.20;;
16579;SDS011;8402;51.466;6.806;2022-12-16T12:19:35;68.67;;;24.67;;
16579;SDS011;8402;51.466;6.806;2022-12-16T12:22:32;75.37;;;25.93;;
16579;SDS011;8402;51.466;6.806;2022-12-16T12:25:23;92.83;;;25.60;;
16579;SDS011;8402;51.466;6.806;2022-12-16T12:28:18;80.40;;;24.67;;
16579;SDS011;8402;51.466;6.806;2022-12-16T12:31:15;65.53;;;22.87;;
16579;SDS011;8402;51.466;6.806;2022-12-16T12:34:11;77.47;;;24.07;;
16579;SDS011;8402;51.466;6.806;2022-12-16T12:37:03;76.13;;;24.57;;
16579;SDS011;8402;51.466;6.806;2022-12-16T12:39:56;80.40;;;24.63;;
16579;SDS011;8402;51.466;6.806;2022-12-16T12:43:05;72.73;;;24.93;;
16579;SDS011;8402;51.466;6.806;2022-12-16T12:46:08;84.53;;;25.80;;
16579;SDS011;8402;51.466;6.806;2022-12-16T12:49:03;68.73;;;25.00;;
16579;SDS011;8402;51.466;6.806;2022-12-16T12:51:57;78.17;;;26.27;;
16579;SDS011;8402;51.466;6.806;2022-12-16T12:54:49;71.90;;;24.83;;
16579;SDS011;8402;51.466;6.806;2022-12-16T12:57:37;72.03;;;25.50;;
16579;SDS011;8402;51.466;6.806;2022-12-16T13:00:29;75.37;;;24.83;;
16579;SDS011;8402;51.466;6.806;2022-12-16T13:03:22;80.93;;;25.97;;
16579;SDS011;8402;51.466;6.806;2022-12-16T13:06:15;92.83;;;26.13;;
16579;SDS011;8402;51.466;6.806;2022-12-16T13:09:02;84.53;;;26.57;;
16579;SDS011;8402;51.466;6.806;2022-12-16T13:12:19;76.60;;;23.97;;
16579;SDS011;8402;51.466;6.806;2022-12-16T13:15:10;73.97;;;24.47;;
16579;SDS011;8402;51.466;6.806;2022-12-16T13:24:29;81.57;;;27.00;;
16579;SDS011;8402;51.466;6.806;2022-12-16T13:27:20;84.27;;;27.10;;
16579;SDS011;8402;51.466;6.806;2022-12-16T13:30:16;83.47;;;26.90;;
16579;SDS011;8402;51.466;6.806;2022-12-16T13:33:07;84.87;;;27.50;;
16579;SDS011;8402;51.466;6.806;2022-12-16T13:36:08;90.83;;;27.90;;
16579;SDS011;8402;51.466;6.806;2022-12-16T13:38:55;88.73;;;28.10;;
16579;SDS011;8402;51.466;6.806;2022-12-16T13:41:57;98.83;;;27.47;;
16579;SDS011;8402;51.466;6.806;2022-12-16T13:44:53;77.60;;;26.37;;
16579;SDS011;8402;51.466;6.806;2022-12-16T13:50:49;76.90;;;28.53;;
16579;SDS011;8402;51.466;6.806;2022-12-16T13:53:46;92.07;;;27.20;;
16579;SDS011;8402;51.466;6.806;2022-12-16T13:56:36;87.00;;;28.87;;
16579;SDS011;8402;51.466;6.806;2022-12-16T13:59:25;88.20;;;30.27;;
16579;SDS011;8402;51.466;6.806;2022-12-16T14:02:16;83.03;;;28.07;;
16579;SDS011;8402;51.466;6.806;2022-12-16T14:05:13;91.47;;;29.37;;
16579;SDS011;8402;51.466;6.806;2022-12-16T14:08:03;93.63;;;28.60;;
16579;SDS011;8402;51.466;6.806;2022-12-16T14:10:55;96.13;;;29.90;;
16579;SDS011;8402;51.466;6.806;2022-12-16T14:13:45;95.83;;;29.03;;
16579;SDS011;8402;51.466;6.806;2022-12-16T14:16:42;86.20;;;28.97;;
16579;SDS011;8402;51.466;6.806;2022-12-16T14:19:36;95.77;;;28.30;;
16579;SDS011;8402;51.466;6.806;2022-12-16T14:22:40;103.77;;;30.73;;
16579;SDS011;8402;51.466;6.806;2022-12-16T14:25:36;94.87;;;30.63;;
16579;SDS011;8402;51.466;6.806;2022-12-16T14:28:40;103.13;;;32.77;;
16579;SDS011;8402;51.466;6.806;2022-12-16T14:31:26;105.10;;;34.57;;
16579;SDS011;8402;51.466;6.806;2022-12-16T14:34:19;119.83;;;32.93;;
16579;SDS011;8402;51.466;6.806;2022-12-16T14:37:11;112.27;;;34.37;;
16579;SDS011;8402;51.466;6.806;2022-12-16T14:39:57;101.27;;;32.20;;
16579;SDS011;8402;51.466;6.806;2022-12-16T14:42:42;113.83;;;33.73;;
16579;SDS011;8402;51.466;6.806;2022-12-16T14:45:30;132.67;;;35.30;;
16579;SDS011;8402;51.466;6.806;2022-12-16T14:48:21;113.07;;;34.13;;
16579;SDS011;8402;51.466;6.806;2022-12-16T14:51:25;103.30;;;33.10;;
16579;SDS011;8402;51.466;6.806;2022-12-16T14:54:18;129.23;;;34.03;;
16579;SDS011;8402;51.466;6.806;2022-12-16T14:57:10;131.30;;;32.40;;
16579;SDS011;8402;51.466;6.806;2022-12-16T14:59:58;119.27;;;32.37;;
16579;SDS011;8402;51.466;6.806;2022-12-16T15:02:47;114.30;;;33.37;;
16579;SDS011;8402;51.466;6.806;2022-12-16T15:05:35;105.27;;;32.80;;
16579;SDS011;8402;51.466;6.806;2022-12-16T15:08:23;109.10;;;31.77;;
16579;SDS011;8402;51.466;6.806;2022-12-16T15:11:18;101.70;;;29.53;;
16579;SDS011;8402;51.466;6.806;2022-12-16T15:14:22;98.03;;;30.67;;
16579;SDS011;8402;51.466;6.806;2022-12-16T15:17:17;111.20;;;29.23;;
16579;SDS011;8402;51.466;6.806;2022-12-16T15:20:10;94.23;;;29.07;;
16579;SDS011;8402;51.466;6.806;2022-12-16T15:23:09;97.73;;;29.23;;
16579;SDS011;8402;51.466;6.806;2022-12-16T15:26:00;109.20;;;29.07;;
16579;SDS011;8402;51.466;6.806;2022-12-16T15:28:45;98.77;;;29.93;;
16579;SDS011;8402;51.466;6.806;2022-12-16T15:31:32;108.23;;;28.93;;
16579;SDS011;8402;51.466;6.806;2022-12-16T15:34:26;104.17;;;30.13;;
16579;SDS011;8402;51.466;6.806;2022-12-16T15:37:17;114.23;;;29.83;;
16579;SDS011;8402;51.466;6.806;2022-12-16T15:40:13;98.10;;;30.00;;
16579;SDS011;8402;51.466;6.806;2022-12-16T15:43:03;98.83;;;30.10;;
16579;SDS011;8402;51.466;6.806;2022-12-16T15:45:49;94.23;;;27.87;;
16579;SDS011;8402;51.466;6.806;2022-12-16T15:48:38;111.97;;;29.60;;
16579;SDS011;8402;51.466;6.806;2022-12-16T15:51:27;98.40;;;30.37;;
16579;SDS011;8402;51.466;6.806;2022-12-16T15:54:26;107.37;;;29.47;;
16579;SDS011;8402;51.466;6.806;2022-12-16T15:57:23;102.67;;;28.47;;
16579;SDS011;8402;51.466;6.806;2022-12-16T16:00:18;85.93;;;28.07;;
16579;SDS011;8402;51.466;6.806;2022-12-16T16:03:19;95.93;;;29.10;;
16579;SDS011;8402;51.466;6.806;2022-12-16T16:06:19;96.73;;;27.67;;
16579;SDS011;8402;51.466;6.806;2022-12-16T16:09:10;97.77;;;28.27;;
16579;SDS011;8402;51.466;6.806;2022-12-16T16:11:58;96.50;;;28.50;;
16579;SDS011;8402;51.466;6.806;2022-12-16T16:14:43;103.20;;;29.83;;
16579;SDS011;8402;51.466;6.806;2022-12-16T16:17:28;105.80;;;27.93;;
16579;SDS011;8402;51.466;6.806;2022-12-16T16:20:14;106.87;;;30.50;;
16579;SDS011;8402;51.466;6.806;2022-12-16T16:23:01;131.90;;;31.80;;
16579;SDS011;8402;51.466;6.806;2022-12-16T16:25:47;102.63;;;27.03;;
16579;SDS011;8402;51.466;6.806;2022-12-16T16:28:34;103.83;;;29.90;;
16579;SDS011;8402;51.466;6.806;2022-12-16T16:31:19;110.20;;;28.17;;
16579;SDS011;8402;51.466;6.806;2022-12-16T16:34:04;110.47;;;31.20;;